Time;durP1;ratioP1;P1;durP2;ratioP2;P2;SDS_P1;SDS_P2;PMS_P1;PMS_P2;Temp;Humidity;BMP_temperature;BMP_pressure;BME280_temperature;BME280_humidity;BME280_pressure;Samples;Min_cycle;Max_cycle;Signal;HPM_P1;HPM_P2
2021/12/13 00:02:38;;;;;;;;;;;;;;;7.89;100.00;100763.91;6165029;23;19913;-78
2021/12/13 00:05:03;;;;;;;;;;;;;;;7.90;100.00;100778.94;6165022;23;19915;-78
2021/12/13 00:07:34;;;;;;;;;;;;;;;7.90;100.00;100768.28;6165550;23;19905;-80
2021/12/13 00:10:06;;;;;;;;;;;;;;;7.89;100.00;100763.91;6188517;23;19916;-78
2021/12/13 00:12:34;;;;;;;;;;;;;;;7.90;100.00;100762.13;6188655;23;19940;-79
2021/12/13 00:14:59;;;;;;;;;;;;;;;7.90;100.00;100770.09;6163893;23;19904;-79
2021/12/13 00:17:26;;;;;;;;;;;;;;;7.89;100.00;100768.41;6188432;23;19912;-79
2021/12/13 00:19:55;;;;;;;;;;;;;;;7.89;100.00;100774.56;6163855;23;20315;-81
2021/12/13 00:22:24;;;;;;;;;;;;;;;7.89;100.00;100787.03;6165359;23;19928;-79
2021/12/13 00:24:50;;;;;;;;;;;;;;;7.90;100.00;100781.59;6188737;23;19928;-79
2021/12/13 00:27:17;;;;;;;;;;;;;;;7.89;100.00;100769.25;6188231;23;19904;-79
2021/12/13 00:29:42;;;;;;;;;;;;;;;7.89;100.00;100779.91;6189100;23;19959;-79
2021/12/13 00:32:08;;;;;;;;;;;;;;;7.89;100.00;100779.91;6165678;23;19908;-78
2021/12/13 00:34:34;;;;;;;;;;;;;;;7.89;100.00;100774.56;6165059;23;19909;-79
2021/12/13 00:37:08;;;;;;;;;;;;;;;7.90;100.00;100772.75;6163440;23;19909;-79
2021/12/13 00:39:52;;;;;;;;;;;;;;;7.89;100.00;100771.06;6188974;23;19915;-80
2021/12/13 00:42:17;;;;;;;;;;;;;;;7.89;100.00;100785.22;6163678;23;19908;-79
2021/12/13 00:45:05;;;;;;;;;;;;;;;7.89;100.00;100785.22;6188617;23;19908;-79
2021/12/13 00:47:31;;;;;;;;;;;;;;;7.89;100.00;100792.34;6163873;23;19952;-79
2021/12/13 00:49:57;;;;;;;;;;;;;;;7.89;100.00;100787.88;6188586;23;19909;-79
2021/12/13 00:52:23;;;;;;;;;;;;;;;7.90;100.00;100786.94;6163492;23;19964;-80
2021/12/13 00:54:48;;;;;;;;;;;;;;;7.90;100.00;100796.72;6188417;23;19905;-79
2021/12/13 00:57:29;;;;;;;;;;;;;;;7.90;100.00;100797.59;6188509;23;19908;-80
2021/12/13 00:59:57;;;;;;;;;;;;;;;7.90;100.00;100802.06;6165048;23;19956;-79
2021/12/13 01:02:30;;;;;;;;;;;;;;;7.90;100.00;100796.72;6187865;23;19913;-78
2021/12/13 01:05:10;;;;;;;;;;;;;;;7.90;100.00;100796.72;6162811;23;19953;-78
2021/12/13 01:07:43;;;;;;;;;;;;;;;7.89;100.00;100806.53;6163221;23;19928;-79
2021/12/13 01:10:17;;;;;;;;;;;;;;;7.90;100.00;100797.59;6165592;23;19968;-79
2021/12/13 01:12:43;;;;;;;;;;;;;;;7.90;100.00;100807.38;6165157;23;19909;-79
2021/12/13 01:15:29;;;;;;;;;;;;;;;7.89;100.00;100800.34;6188313;23;19911;-78
2021/12/13 01:18:15;;;;;;;;;;;;;;;7.90;100.00;100802.06;6163108;23;19904;-78
2021/12/13 01:20:56;;;;;;;;;;;;;;;7.90;100.00;100796.72;6138595;23;20003;-79
2021/12/13 01:23:38;;;;;;;;;;;;;;;7.89;100.00;100797.69;6164417;23;19915;-79
2021/12/13 01:26:14;;;;;;;;;;;;;;;7.89;100.00;100798.53;6163938;23;19930;-79
2021/12/13 01:28:42;;;;;;;;;;;;;;;7.90;100.00;100796.72;6138725;23;19909;-78
2021/12/13 01:31:09;;;;;;;;;;;;;;;7.90;100.00;100799.41;6163539;23;19909;-80
2021/12/13 01:33:34;;;;;;;;;;;;;;;7.90;100.00;100794.91;6138406;23;20291;-78
2021/12/13 01:36:01;;;;;;;;;;;;;;;7.90;100.00;100794.06;6138450;23;19932;-79
2021/12/13 01:38:34;;;;;;;;;;;;;;;7.91;100.00;100798.44;6163543;23;19908;-81
2021/12/13 01:41:01;;;;;;;;;;;;;;;7.91;100.00;100803.75;6138782;23;19932;-79
2021/12/13 01:43:27;;;;;;;;;;;;;;;7.89;100.00;100803.88;6163338;23;19904;-79
2021/12/13 01:45:53;;;;;;;;;;;;;;;7.90;100.00;100810.03;6138661;23;19949;-80
2021/12/13 01:48:20;;;;;;;;;;;;;;;7.90;100.00;100805.56;6163550;23;19916;-79
2021/12/13 01:50:52;;;;;;;;;;;;;;;7.90;100.00;100813.56;6138356;23;19909;-78
2021/12/13 01:53:18;;;;;;;;;;;;;;;7.91;100.00;100811.75;6138232;23;19905;-79
2021/12/13 01:55:45;;;;;;;;;;;;;;;7.90;100.00;100813.56;6138254;23;19905;-79
2021/12/13 02:01:08;;;;;;;;;;;;;;;7.89;100.00;100808.34;6132075;23;20367;-79
2021/12/13 02:04:00;;;;;;;;;;;;;;;7.91;100.00;100822.41;6163000;23;19912;-79
2021/12/13 02:06:37;;;;;;;;;;;;;;;7.91;100.00;100822.41;6136432;23;19908;-80
2021/12/13 02:09:22;;;;;;;;;;;;;;;7.91;100.00;100809.09;6165022;23;19908;-80
2021/12/13 02:11:49;;;;;;;;;;;;;;;7.93;100.00;100812.50;6137624;23;19931;-79
2021/12/13 02:14:17;;;;;;;;;;;;;;;7.94;100.00;100813.34;6138476;23;19916;-79
2021/12/13 02:17:00;;;;;;;;;;;;;;;7.95;100.00;100820.41;6176861;23;19943;-79
2021/12/13 02:19:36;;;;;;;;;;;;;;;7.94;100.00;100813.34;6164853;23;19908;-80
2021/12/13 02:22:22;;;;;;;;;;;;;;;7.93;100.00;100819.63;6163345;23;19952;-77
2021/12/13 02:24:49;;;;;;;;;;;;;;;7.93;100.00;100809.84;6163561;23;19908;-80
2021/12/13 02:27:14;;;;;;;;;;;;;;;7.93;100.00;100812.50;6164866;23;20011;-79
2021/12/13 02:29:42;;;;;;;;;;;;;;;7.94;100.00;100816.88;6189496;23;19908;-81
2021/12/13 02:32:08;;;;;;;;;;;;;;;7.94;100.00;100813.34;6164485;23;19915;-79
2021/12/13 02:34:36;;;;;;;;;;;;;;;7.94;100.00;100819.53;6189758;23;19909;-78
2021/12/13 02:37:01;;;;;;;;;;;;;;;7.94;100.00;100810.69;6189786;23;20316;-79
2021/12/13 02:39:28;;;;;;;;;;;;;;;7.95;100.00;100810.59;6190072;23;19915;-79
2021/12/13 02:41:54;;;;;;;;;;;;;;;7.95;100.00;100817.72;6166494;23;19915;-79
2021/12/13 02:44:30;;;;;;;;;;;;;;;7.96;100.00;100803.47;6189353;23;20240;-80
2021/12/13 02:46:57;;;;;;;;;;;;;;;7.98;100.00;100809.53;6164473;23;20353;-79
2021/12/13 02:49:23;;;;;;;;;;;;;;;7.97;100.00;100814.00;6189965;23;19904;-79
2021/12/13 02:51:50;;;;;;;;;;;;;;;7.97;100.00;100803.34;6164542;23;19912;-79
2021/12/13 02:54:18;;;;;;;;;;;;;;;7.97;100.00;100802.50;6165994;23;19908;-79
2021/12/13 02:56:46;;;;;;;;;;;;;;;7.97;100.00;100814.00;6165967;23;19908;-79
2021/12/13 02:59:12;;;;;;;;;;;;;;;7.98;100.00;100814.88;6164874;23;19919;-80
2021/12/13 03:01:46;;;;;;;;;;;;;;;7.97;100.00;100810.50;6189501;23;19909;-78
2021/12/13 03:04:12;;;;;;;;;;;;;;;7.97;100.00;100815.81;6189239;23;19964;-79
2021/12/13 03:06:40;;;;;;;;;;;;;;;7.97;100.00;100808.69;6163962;23;19909;-78
2021/12/13 03:09:07;;;;;;;;;;;;;;;7.98;100.00;100814.88;6189680;23;19908;-79
2021/12/13 03:11:34;;;;;;;;;;;;;;;7.97;100.00;100808.69;6189227;23;19915;-80
2021/12/13 03:14:02;;;;;;;;;;;;;;;7.97;100.00;100815.81;6165526;23;19931;-78
2021/12/13 03:16:29;;;;;;;;;;;;;;;7.96;100.00;100817.63;6165385;23;19936;-78
2021/12/13 03:18:56;;;;;;;;;;;;;;;7.96;100.00;100816.78;6139961;23;20000;-80
2021/12/13 03:21:29;;;;;;;;;;;;;;;7.96;100.00;100814.13;6164483;23;19935;-79
2021/12/13 03:24:09;;;;;;;;;;;;;;;7.97;100.00;100819.34;6164412;23;19911;-80
2021/12/13 03:26:43;;;;;;;;;;;;;;;7.96;100.00;100809.63;6139395;23;19908;-79
2021/12/13 03:29:26;;;;;;;;;;;;;;;7.97;100.00;100816.69;6139821;23;19924;-79
2021/12/13 03:31:53;;;;;;;;;;;;;;;7.97;100.00;100815.81;6164705;23;19913;-78
2021/12/13 03:34:22;;;;;;;;;;;;;;;7.97;100.00;100814.00;6164423;23;19956;-80
2021/12/13 03:36:50;;;;;;;;;;;;;;;7.97;100.00;100815.81;6139080;23;19909;-79
2021/12/13 03:39:27;;;;;;;;;;;;;;;7.97;100.00;100814.00;6164676;23;19915;-79
2021/12/13 03:41:53;;;;;;;;;;;;;;;7.98;100.00;100822.84;6164276;23;19911;-79
2021/12/13 03:44:22;;;;;;;;;;;;;;;7.98;100.00;100825.53;6163907;23;19936;-80
2021/12/13 03:46:51;;;;;;;;;;;;;;;7.98;100.00;100826.38;6165403;23;19916;-80
2021/12/13 03:49:18;;;;;;;;;;;;;;;7.98;100.00;100829.03;6139529;23;19909;-80
2021/12/13 03:51:43;;;;;;;;;;;;;;;7.98;100.00;100829.03;6164161;23;19911;-80
2021/12/13 03:54:10;;;;;;;;;;;;;;;7.98;100.00;100825.53;6163893;23;19909;-80
2021/12/13 03:56:37;;;;;;;;;;;;;;;7.97;100.00;100835.31;6139207;23;19908;-78
2021/12/13 03:59:12;;;;;;;;;;;;;;;7.99;100.00;100835.22;6164105;23;19908;-80
2021/12/13 04:02:04;;;;;;;;;;;;;;;7.99;100.00;100835.22;6163700;23;19904;-78
2021/12/13 04:04:40;;;;;;;;;;;;;;;7.99;100.00;100832.56;6137382;23;20343;-81
2021/12/13 04:07:08;;;;;;;;;;;;;;;7.98;100.00;100831.69;6164185;23;19909;-78
2021/12/13 04:09:34;;;;;;;;;;;;;;;7.98;100.00;100833.50;6165780;23;19916;-79
2021/12/13 04:12:00;;;;;;;;;;;;;;;7.97;100.00;100827.31;6139151;23;19956;-79
2021/12/13 04:14:29;;;;;;;;;;;;;;;7.98;100.00;100828.19;6163951;23;20690;-79
2021/12/13 04:17:20;;;;;;;;;;;;;;;7.97;100.00;100837.13;6180026;23;19917;-79
2021/12/13 04:19:47;;;;;;;;;;;;;;;7.97;100.00;100832.66;6186876;23;19908;-79
2021/12/13 04:22:13;;;;;;;;;;;;;;;7.98;100.00;100828.19;6163877;23;19908;-78
2021/12/13 04:24:40;;;;;;;;;;;;;;;7.98;100.00;100829.03;6188874;23;20007;-79
2021/12/13 04:27:09;;;;;;;;;;;;;;;7.98;100.00;100833.50;6188816;23;19908;-80
2021/12/13 04:29:38;;;;;;;;;;;;;;;7.99;100.00;100835.22;6188736;23;19908;-79
2021/12/13 04:32:12;;;;;;;;;;;;;;;7.99;100.00;100832.56;6164054;23;20194;-79
2021/12/13 04:34:41;;;;;;;;;;;;;;;7.99;100.00;100827.22;6188471;23;19904;-79
2021/12/13 04:37:06;;;;;;;;;;;;;;;7.98;100.00;100834.38;6163560;23;19908;-79
2021/12/13 04:39:33;;;;;;;;;;;;;;;8.00;100.00;100834.25;6188673;23;19904;-79
2021/12/13 04:42:06;;;;;;;;;;;;;;;8.00;100.00;100844.91;6188813;23;19915;-79
2021/12/13 04:44:31;;;;;;;;;;;;;;;8.00;100.00;100834.25;6188503;23;19909;-80
2021/12/13 04:46:57;;;;;;;;;;;;;;;8.00;100.00;100839.59;6163800;23;19908;-80
2021/12/13 04:49:23;;;;;;;;;;;;;;;7.98;100.00;100830.84;6188445;23;19908;-79
2021/12/13 04:52:00;;;;;;;;;;;;;;;7.98;100.00;100833.50;6188247;23;19911;-79
2021/12/13 04:54:27;;;;;;;;;;;;;;;8.00;100.00;100839.59;6188266;23;19908;-80
2021/12/13 04:56:52;;;;;;;;;;;;;;;8.00;100.00;100842.25;6188866;23;19960;-79
2021/12/13 04:59:18;;;;;;;;;;;;;;;7.99;100.00;100844.06;6188286;23;19908;-78
2021/12/13 05:01:44;;;;;;;;;;;;;;;7.98;100.00;100841.50;6188631;23;19947;-80
2021/12/13 05:04:10;;;;;;;;;;;;;;;7.98;100.00;100842.34;6163344;23;19972;-78
2021/12/13 05:06:38;;;;;;;;;;;;;;;7.99;100.00;100835.22;6163521;23;19912;-79
2021/12/13 05:09:05;;;;;;;;;;;;;;;7.99;100.00;100849.38;6165163;23;19983;-80
2021/12/13 05:11:31;;;;;;;;;;;;;;;7.99;100.00;100837.88;6188389;23;19927;-79
2021/12/13 05:13:57;;;;;;;;;;;;;;;7.99;100.00;100844.06;6164513;23;19931;-79
2021/12/13 05:16:27;;;;;;;;;;;;;;;7.97;100.00;100848.63;6162899;23;19928;-80
2021/12/13 05:18:54;;;;;;;;;;;;;;;7.99;100.00;100844.06;6163384;23;19928;-79
2021/12/13 05:21:46;;;;;;;;;;;;;;;7.98;100.00;100841.50;6163294;23;19940;-79
2021/12/13 05:24:16;;;;;;;;;;;;;;;7.97;100.00;100848.63;6164359;23;19908;-79
2021/12/13 05:26:44;;;;;;;;;;;;;;;7.98;100.00;100853.00;6163081;23;19979;-79
2021/12/13 05:29:28;;;;;;;;;;;;;;;7.99;100.00;100843.22;6163228;23;20514;-79
2021/12/13 05:31:55;;;;;;;;;;;;;;;7.99;100.00;100845.88;6164803;23;19959;-79
2021/12/13 05:34:21;;;;;;;;;;;;;;;8.00;100.00;100852.91;6187913;23;19908;-79
2021/12/13 05:36:53;;;;;;;;;;;;;;;7.99;100.00;100852.06;6164649;23;19908;-79
2021/12/13 05:39:19;;;;;;;;;;;;;;;8.00;100.00;100847.59;6163164;23;19908;-79
2021/12/13 05:41:52;;;;;;;;;;;;;;;8.01;100.00;100857.28;6164707;23;19932;-79
2021/12/13 05:44:22;;;;;;;;;;;;;;;8.00;100.00;100859.09;6187605;23;19909;-80
2021/12/13 05:46:48;;;;;;;;;;;;;;;8.01;100.00;100858.13;6163160;23;19915;-79
2021/12/13 05:49:18;;;;;;;;;;;;;;;8.01;100.00;100859.94;6164693;23;19940;-79
2021/12/13 05:51:44;;;;;;;;;;;;;;;8.01;100.00;100863.47;6163260;23;19916;-79
2021/12/13 05:54:22;;;;;;;;;;;;;;;8.00;100.00;100859.09;6164359;23;19908;-79
2021/12/13 05:56:52;;;;;;;;;;;;;;;8.00;100.00;100860.91;6164739;23;19924;-80
2021/12/13 05:59:19;;;;;;;;;;;;;;;8.00;100.00;100866.22;6163449;23;19909;-77
2021/12/13 06:01:57;;;;;;;;;;;;;;;7.99;100.00;100849.38;6190422;23;20341;-79
2021/12/13 06:04:24;;;;;;;;;;;;;;;8.00;100.00;100863.56;6189885;23;19919;-79
2021/12/13 06:06:51;;;;;;;;;;;;;;;8.00;100.00;100867.06;6189598;23;20202;-78
2021/12/13 06:09:35;;;;;;;;;;;;;;;8.00;100.00;100868.88;6189619;23;19996;-79
2021/12/13 06:12:04;;;;;;;;;;;;;;;8.00;100.00;100874.22;6165862;23;20670;-79
2021/12/13 06:14:29;;;;;;;;;;;;;;;7.98;100.00;100869.00;6189463;23;20020;-79
2021/12/13 06:17:00;;;;;;;;;;;;;;;7.99;100.00;100868.03;6190140;23;19913;-79
2021/12/13 06:19:34;;;;;;;;;;;;;;;7.97;100.00;100877.94;6166596;23;19909;-79
2021/12/13 06:22:00;;;;;;;;;;;;;;;7.98;100.00;100876.97;6165167;23;20057;-80
2021/12/13 06:24:30;;;;;;;;;;;;;;;7.99;100.00;100884.00;6166099;23;19909;-78
2021/12/13 06:26:59;;;;;;;;;;;;;;;7.99;100.00;100869.84;6165041;23;19932;-78
2021/12/13 06:29:25;;;;;;;;;;;;;;;7.98;100.00;100858.34;6190493;23;19908;-80
2021/12/13 06:31:50;;;;;;;;;;;;;;;8.00;100.00;100850.25;6190139;23;20569;-79
2021/12/13 06:34:16;;;;;;;;;;;;;;;8.00;100.00;100855.56;6189446;23;19916;-80
2021/12/13 06:36:42;;;;;;;;;;;;;;;8.01;100.00;100862.59;6189348;23;19908;-78
2021/12/13 06:39:18;;;;;;;;;;;;;;;8.00;100.00;100860.91;6189482;23;19928;-79
2021/12/13 06:42:02;;;;;;;;;;;;;;;7.99;100.00;100876.03;6164615;23;19916;-79
2021/12/13 06:44:29;;;;;;;;;;;;;;;8.00;100.00;100871.56;6166130;23;19908;-78
2021/12/13 06:47:03;;;;;;;;;;;;;;;7.99;100.00;100875.16;6164433;23;19947;-79
2021/12/13 06:49:28;;;;;;;;;;;;;;;7.99;100.00;100865.38;6189665;23;19971;-78
2021/12/13 06:52:03;;;;;;;;;;;;;;;7.99;100.00;100868.03;6165888;23;20260;-78
2021/12/13 06:54:55;;;;;;;;;;;;;;;7.99;100.00;100867.19;6164011;23;19943;-79
2021/12/13 06:57:29;;;;;;;;;;;;;;;8.00;100.00;100871.56;6162228;23;19905;-79
2021/12/13 06:59:55;;;;;;;;;;;;;;;7.99;100.00;100868.03;6165837;23;19909;-78
2021/12/13 07:02:24;;;;;;;;;;;;;;;7.97;100.00;100871.75;6166148;23;19932;-78
2021/12/13 07:04:54;;;;;;;;;;;;;;;7.98;100.00;100878.78;6189113;23;19913;-79
2021/12/13 07:07:21;;;;;;;;;;;;;;;7.97;100.00;100871.75;6189576;23;19912;-79
2021/12/13 07:09:54;;;;;;;;;;;;;;;7.98;100.00;100876.97;6188670;23;19915;-77
2021/12/13 07:12:19;;;;;;;;;;;;;;;7.99;100.00;100878.69;6188428;23;19952;-78
2021/12/13 07:14:44;;;;;;;;;;;;;;;8.01;100.00;100887.44;6163649;23;19909;-80
2021/12/13 07:17:15;;;;;;;;;;;;;;;8.01;100.00;100887.44;6163913;23;19916;-79
2021/12/13 07:19:42;;;;;;;;;;;;;;;8.02;100.00;100888.28;6188954;23;19948;-78
2021/12/13 07:22:07;;;;;;;;;;;;;;;8.02;100.00;100890.94;6188512;23;19908;-80
2021/12/13 07:24:35;;;;;;;;;;;;;;;8.02;100.00;100883.81;6188723;23;19904;-78
2021/12/13 07:27:07;;;;;;;;;;;;;;;8.02;100.00;100878.50;6189257;23;19908;-80
2021/12/13 07:29:45;;;;;;;;;;;;;;;8.02;100.00;100889.16;6164335;23;19959;-78
2021/12/13 07:32:10;;;;;;;;;;;;;;;8.01;100.00;100884.78;6165801;23;19909;-78
2021/12/13 07:34:54;;;;;;;;;;;;;;;8.02;100.00;100888.28;6162901;23;19923;-78
2021/12/13 07:37:37;;;;;;;;;;;;;;;8.02;100.00;100888.28;6163531;23;19956;-79
2021/12/13 07:40:16;;;;;;;;;;;;;;;8.03;100.00;100890.84;6188733;23;19924;-78
2021/12/13 07:42:48;;;;;;;;;;;;;;;8.04;100.00;100889.03;6161463;23;19908;-78
2021/12/13 07:45:32;;;;;;;;;;;;;;;8.04;100.00;100894.38;6186768;23;19914;-78
2021/12/13 07:47:58;;;;;;;;;;;;;;;8.03;100.00;100900.66;6161781;23;20572;-79
2021/12/13 07:50:23;;;;;;;;;;;;;;;8.02;100.00;100899.78;6160784;23;19912;-78
2021/12/13 07:52:53;;;;;;;;;;;;;;;8.04;100.00;100897.91;6186067;23;19905;-80
2021/12/13 07:55:22;;;;;;;;;;;;;;;8.04;100.00;100903.25;6186641;23;19944;-80
2021/12/13 07:57:48;;;;;;;;;;;;;;;8.05;100.00;100909.44;6161426;23;20392;-78
2021/12/13 08:00:16;;;;;;;;;;;;;;;8.05;100.00;100920.94;6161832;23;19909;-79
2021/12/13 08:02:42;;;;;;;;;;;;;;;8.06;100.00;100917.31;6160967;23;19909;-79
2021/12/13 08:05:11;;;;;;;;;;;;;;;8.08;100.00;100922.56;6186338;23;19975;-78
2021/12/13 08:07:51;;;;;;;;;;;;;;;8.07;100.00;100920.84;6159910;23;19923;-79
2021/12/13 08:10:24;;;;;;;;;;;;;;;8.07;100.00;100931.50;6161698;23;19908;-79
2021/12/13 08:12:51;;;;;;;;;;;;;;;8.07;100.00;100932.34;6186692;23;19981;-80
2021/12/13 08:15:18;;;;;;;;;;;;;;;8.08;100.00;100933.22;6160309;23;19909;-78
2021/12/13 08:17:48;;;;;;;;;;;;;;;8.07;100.00;100940.34;6161316;23;19915;-80
2021/12/13 08:20:20;;;;;;;;;;;;;;;8.06;100.00;100945.78;6136272;23;19915;-79
2021/12/13 08:22:47;;;;;;;;;;;;;;;8.07;100.00;100953.66;6160557;23;19956;-79
2021/12/13 08:25:23;;;;;;;;;;;;;;;8.08;100.00;100941.19;6135300;23;19912;-79
2021/12/13 08:28:08;;;;;;;;;;;;;;;8.09;100.00;100943.75;6134842;23;19961;-78
2021/12/13 08:30:53;;;;;;;;;;;;;;;8.10;100.00;100944.63;6160231;23;19936;-80
2021/12/13 08:33:18;;;;;;;;;;;;;;;8.11;100.00;100938.34;6157866;23;19957;-80
2021/12/13 08:36:02;;;;;;;;;;;;;;;8.11;100.00;100956.97;6134097;23;19909;-79
2021/12/13 08:38:34;;;;;;;;;;;;;;;8.12;100.00;100959.56;6133260;23;19916;-79
2021/12/13 08:41:01;;;;;;;;;;;;;;;8.14;100.00;100949.66;6160882;23;19908;-79
2021/12/13 08:43:34;;;;;;;;;;;;;;;8.14;100.00;100943.47;6159028;23;19932;-80
2021/12/13 08:45:59;;;;;;;;;;;;;;;8.15;100.00;100940.72;6132378;23;19908;-80
2021/12/13 08:48:24;;;;;;;;;;;;;;;8.18;100.00;100934.31;6158463;23;19909;-80
2021/12/13 08:50:52;;;;;;;;;;;;;;;8.18;100.00;100935.19;6159105;23;19915;-80
2021/12/13 08:53:24;;;;;;;;;;;;;;;8.19;100.00;100936.03;6133879;23;19908;-79
2021/12/13 08:56:00;;;;;;;;;;;;;;;8.20;100.00;100935.06;6159515;23;19916;-80
2021/12/13 08:58:26;;;;;;;;;;;;;;;8.19;100.00;100944.88;6134947;23;20637;-79
2021/12/13 09:00:51;;;;;;;;;;;;;;;8.21;100.00;100955.44;6134049;23;19965;-80
2021/12/13 09:03:24;;;;;;;;;;;;;;;8.21;100.00;100952.78;6133887;23;20737;-80
2021/12/13 09:06:01;;;;;;;;;;;;;;;8.23;100.00;100958.00;6160043;23;19939;-79
2021/12/13 09:08:29;;;;;;;;;;;;;;;8.23;100.00;100950.88;6160554;23;19913;-79
2021/12/13 09:11:00;;;;;;;;;;;;;;;8.24;100.00;100946.41;6134064;23;19908;-79
2021/12/13 09:13:38;;;;;;;;;;;;;;;8.25;100.00;100951.63;6138415;23;19904;-79
2021/12/13 09:16:04;;;;;;;;;;;;;;;8.27;100.00;100956.84;6141591;23;19912;-80
2021/12/13 09:18:29;;;;;;;;;;;;;;;8.27;100.00;100957.72;6159039;23;19957;-80
2021/12/13 09:20:55;;;;;;;;;;;;;;;8.27;100.00;100955.03;6184315;23;19956;-79
2021/12/13 09:23:22;;;;;;;;;;;;;;;8.29;100.00;100960.28;6181274;23;19923;-80
2021/12/13 09:25:50;;;;;;;;;;;;;;;8.28;100.00;100958.56;6158797;23;19909;-80
2021/12/13 09:28:15;;;;;;;;;;;;;;;8.29;100.00;100963.78;6181203;23;19924;-79
2021/12/13 09:30:49;;;;;;;;;;;;;;;8.30;100.00;100965.50;6160052;23;19920;-79
2021/12/13 09:33:28;;;;;;;;;;;;;;;8.32;100.00;100966.25;6183562;23;19904;-79
2021/12/13 09:35:55;;;;;;;;;;;;;;;8.33;100.00;100968.00;6158409;23;19904;-80
2021/12/13 09:38:22;;;;;;;;;;;;;;;8.33;100.00;100970.66;6158324;23;19984;-79
2021/12/13 09:40:57;;;;;;;;;;;;;;;8.34;100.00;100976.84;6183755;23;19932;-79
2021/12/13 09:43:23;;;;;;;;;;;;;;;8.34;100.00;100969.72;6158667;23;19908;-79
2021/12/13 09:45:52;;;;;;;;;;;;;;;8.34;100.00;100974.19;6183280;23;19905;-80
2021/12/13 09:48:32;;;;;;;;;;;;;;;8.34;100.00;100987.50;6158220;23;19924;-80
2021/12/13 09:50:59;;;;;;;;;;;;;;;8.35;100.00;100991.88;6159634;23;19908;-79
2021/12/13 09:53:33;;;;;;;;;;;;;;;8.36;100.00;100985.59;6184086;23;19905;-79
2021/12/13 09:55:59;;;;;;;;;;;;;;;8.37;100.00;100981.97;6183344;23;20367;-79
2021/12/13 09:58:26;;;;;;;;;;;;;;;8.39;100.00;100988.06;6182582;23;20474;-79
2021/12/13 10:00:59;;;;;;;;;;;;;;;8.39;100.00;100986.25;6158825;23;20652;-79
2021/12/13 10:03:29;;;;;;;;;;;;;;;8.40;100.00;100987.13;6182863;23;19905;-78
2021/12/13 10:05:56;;;;;;;;;;;;;;;8.40;100.00;100979.97;6157287;23;19919;-79
2021/12/13 10:08:23;;;;;;;;;;;;;;;8.42;100.00;100977.22;6183108;23;19908;-80
2021/12/13 10:10:50;;;;;;;;;;;;;;;8.43;100.00;100978.94;6185521;23;19912;-79
2021/12/13 10:13:18;;;;;;;;;;;;;;;8.45;100.00;100980.53;6159745;23;20327;-80
2021/12/13 10:15:48;;;;;;;;;;;;;;;8.45;100.00;100964.53;6182657;23;19952;-79
2021/12/13 10:18:15;;;;;;;;;;;;;;;8.45;100.00;100964.53;6184200;23;19908;-78
2021/12/13 10:20:58;;;;;;;;;;;;;;;8.46;100.00;100970.72;6184672;23;19908;-79
2021/12/13 10:23:25;;;;;;;;;;;;;;;8.45;100.00;100972.53;6157876;23;19909;-80
2021/12/13 10:25:51;;;;;;;;;;;;;;;8.45;100.00;100969.00;6184409;23;19908;-78
2021/12/13 10:28:19;;;;;;;;;;;;;;;8.46;100.00;100962.72;6185386;23;19908;-78
2021/12/13 10:30:46;;;;;;;;;;;;;;;8.45;100.00;100959.22;6184896;23;19927;-78
2021/12/13 10:33:11;;;;;;;;;;;;;;;8.46;100.00;100947.59;6159680;23;19961;-78
2021/12/13 10:35:38;;;;;;;;;;;;;;;8.48;100.00;100953.69;6159469;23;19928;-79
2021/12/13 10:38:09;;;;;;;;;;;;;;;8.50;100.00;100950.91;6184190;23;19916;-78
2021/12/13 10:40:45;;;;;;;;;;;;;;;8.51;100.00;100957.94;6184578;23;19916;-78
2021/12/13 10:43:18;;;;;;;;;;;;;;;8.51;100.00;100960.63;6184844;23;19928;-78
2021/12/13 10:46:13;;;;;;;;;;;;;;;8.52;100.00;100960.56;6184666;23;20460;-80
2021/12/13 10:48:45;;;;;;;;;;;;;;;8.50;100.00;100965.09;6154519;23;20471;-79
2021/12/13 10:51:22;;;;;;;;;;;;;;;8.49;100.00;100966.06;6185918;23;19912;-79
2021/12/13 10:53:48;;;;;;;;;;;;;;;8.49;100.00;100958.06;6186568;23;19904;-79
2021/12/13 10:56:16;;;;;;;;;;;;;;;8.50;100.00;100964.25;6185961;23;19917;-79
2021/12/13 10:58:43;;;;;;;;;;;;;;;8.50;100.00;100967.75;6186588;23;19914;-78
2021/12/13 11:01:17;;;;;;;;;;;;;;;8.50;100.00;100973.09;6161726;23;20536;-78
2021/12/13 11:03:42;;;;;;;;;;;;;;;8.50;100.00;100972.25;6186136;23;19913;-79
2021/12/13 11:06:08;;;;;;;;;;;;;;;8.50;100.00;100967.75;6161391;23;19915;-78
2021/12/13 11:08:33;;;;;;;;;;;;;;;8.50;100.00;100962.44;6162178;23;19916;-79
2021/12/13 11:11:07;;;;;;;;;;;;;;;8.50;99.95;100954.44;6185943;23;19913;-79
2021/12/13 11:13:33;;;;;;;;;;;;;;;8.50;99.96;100945.59;6160806;23;19912;-80
2021/12/13 11:16:01;;;;;;;;;;;;;;;8.50;99.77;100946.44;6161163;23;19966;-78
2021/12/13 11:18:28;;;;;;;;;;;;;;;8.50;100.00;100940.25;6186266;23;20015;-78
2021/12/13 11:20:54;;;;;;;;;;;;;;;8.51;100.00;100945.50;6185992;23;19993;-79
2021/12/13 11:23:20;;;;;;;;;;;;;;;8.51;99.97;100948.19;6161626;23;19914;-79
2021/12/13 11:25:57;;;;;;;;;;;;;;;8.51;99.79;100944.63;6161236;23;19987;-78
2021/12/13 11:28:23;;;;;;;;;;;;;;;8.52;99.86;100941.88;6160204;23;19932;-78
2021/12/13 11:30:48;;;;;;;;;;;;;;;8.54;99.84;100946.25;6184537;23;19915;-78
2021/12/13 11:33:22;;;;;;;;;;;;;;;8.54;99.63;100940.94;6158426;23;19912;-79
2021/12/13 11:35:53;;;;;;;;;;;;;;;8.54;99.67;100940.94;6160479;23;19928;-77
2021/12/13 11:38:27;;;;;;;;;;;;;;;8.55;99.78;100937.31;6159487;23;20494;-79
2021/12/13 11:40:53;;;;;;;;;;;;;;;8.54;99.68;100939.13;6185475;23;19908;-80
2021/12/13 11:43:41;;;;;;;;;;;;;;;8.55;99.64;100937.31;6161755;23;19920;-78
2021/12/13 11:46:20;;;;;;;;;;;;;;;8.56;99.78;100945.22;6160472;23;19916;-79
2021/12/13 11:49:04;;;;;;;;;;;;;;;8.56;99.75;100945.22;6185100;23;19952;-78
2021/12/13 11:51:48;;;;;;;;;;;;;;;8.57;99.34;100948.72;6159023;23;19909;-78
2021/12/13 11:54:32;;;;;;;;;;;;;;;8.55;99.59;100951.50;6161224;23;19908;-79
2021/12/13 11:57:19;;;;;;;;;;;;;;;8.56;99.41;100947.03;6161878;23;19904;-78
2021/12/13 11:59:54;;;;;;;;;;;;;;;8.56;99.09;100947.03;6185827;23;19958;-79
2021/12/13 12:02:26;;;;;;;;;;;;;;;8.56;99.15;100944.34;6185638;23;19987;-77
2021/12/13 12:05:07;;;;;;;;;;;;;;;8.55;99.27;100937.31;6160351;23;19919;-78
2021/12/13 12:07:37;;;;;;;;;;;;;;;8.55;99.21;100940.84;6162327;23;20376;-78
2021/12/13 12:10:16;;;;;;;;;;;;;;;8.56;98.95;100941.69;6185737;23;19908;-78
2021/12/13 12:13:00;;;;;;;;;;;;;;;8.56;98.71;100936.34;6160332;23;19908;-78
2021/12/13 12:15:26;;;;;;;;;;;;;;;8.57;98.50;100932.72;6160061;23;19908;-78
2021/12/13 12:17:52;;;;;;;;;;;;;;;8.57;98.50;100930.06;6160114;23;20383;-78
2021/12/13 12:20:19;;;;;;;;;;;;;;;8.56;98.38;100931.88;6135447;23;19909;-78
2021/12/13 12:22:51;;;;;;;;;;;;;;;8.57;98.45;100924.75;6157280;23;19916;-78
2021/12/13 12:25:17;;;;;;;;;;;;;;;8.57;98.52;100935.41;6158822;23;20240;-79
2021/12/13 12:27:42;;;;;;;;;;;;;;;8.57;98.65;100927.41;6158311;23;19920;-78
2021/12/13 12:30:15;;;;;;;;;;;;;;;8.58;98.69;100937.09;6158414;23;19928;-78
2021/12/13 12:32:42;;;;;;;;;;;;;;;8.58;98.75;100931.78;6159112;23;19967;-80
2021/12/13 12:35:13;;;;;;;;;;;;;;;8.58;98.47;100929.97;6158348;23;19909;-77
2021/12/13 12:37:58;;;;;;;;;;;;;;;8.59;98.22;100936.16;6158493;23;19908;-78
2021/12/13 12:40:35;;;;;;;;;;;;;;;8.59;98.55;100929.00;6160602;23;19904;-78
2021/12/13 12:43:00;;;;;;;;;;;;;;;8.58;98.52;100935.31;6134815;23;19947;-80
2021/12/13 12:45:32;;;;;;;;;;;;;;;8.59;98.74;100938.81;6159127;23;19912;-77
2021/12/13 12:47:57;;;;;;;;;;;;;;;8.57;98.61;100941.59;6135033;23;19944;-78
2021/12/13 12:50:22;;;;;;;;;;;;;;;8.58;98.36;100943.28;6161513;23;20502;-78
2021/12/13 12:52:47;;;;;;;;;;;;;;;8.57;98.41;100941.59;6160871;23;19908;-78
2021/12/13 12:55:13;;;;;;;;;;;;;;;8.58;98.37;100945.97;6134993;23;19916;-77
2021/12/13 12:57:39;;;;;;;;;;;;;;;8.58;98.57;100945.97;6159705;23;19908;-77
2021/12/13 13:00:04;;;;;;;;;;;;;;;8.58;98.54;100937.09;6159276;23;19916;-78